createdAt,value
2022-08-22T04:04:09.388Z,68.51
2022-08-22T04:08:58.749Z,68.46
2022-08-22T04:13:29.904Z,68.65
2022-08-22T04:18:02.309Z,69.11
2022-08-22T04:22:33.333Z,69.08
2022-08-22T04:26:55.754Z,69.53
2022-08-22T04:31:17.587Z,69.80
2022-08-22T04:35:42.764Z,69.92
2022-08-22T04:40:03.001Z,69.65
2022-08-22T04:44:17.589Z,69.81
2022-08-22T04:48:42.317Z,69.83
2022-08-22T04:53:09.391Z,69.99
2022-08-22T04:58:00.359Z,70.06
2022-08-22T05:02:20.366Z,70.10
2022-08-22T05:06:37.723Z,69.86
2022-08-22T05:10:51.886Z,69.68
2022-08-22T05:15:13.586Z,69.76
2022-08-22T05:19:32.366Z,69.86
2022-08-22T05:23:49.513Z,69.72
2022-08-22T05:28:33.778Z,69.65
2022-08-22T05:33:03.384Z,70.21
2022-08-22T05:37:24.075Z,69.32
2022-08-22T05:41:39.107Z,69.72
2022-08-22T05:45:51.208Z,69.20
2022-08-22T05:50:02.796Z,69.20
2022-08-22T05:54:20.050Z,68.96
2022-08-22T05:58:43.562Z,68.67
2022-08-22T06:03:04.267Z,68.70
2022-08-22T06:07:35.040Z,68.01
2022-08-22T06:12:05.097Z,67.46
2022-08-22T06:16:39.214Z,66.34
2022-08-22T06:21:02.384Z,65.24
2022-08-22T06:25:21.869Z,63.05
2022-08-22T06:29:40.256Z,56.89
2022-08-22T06:34:03.926Z,43.56
2022-08-22T06:38:16.142Z,35.62
2022-08-22T06:42:32.440Z,35.24
2022-08-22T06:46:47.613Z,31.87
2022-08-22T06:50:59.839Z,31.06
2022-08-22T06:55:11.739Z,30.44
2022-08-22T06:59:28.946Z,33.98
2022-08-22T07:03:46.114Z,36.64
2022-08-22T07:07:58.042Z,38.75
2022-08-22T07:12:19.411Z,40.05
2022-08-22T07:16:55.147Z,41.51
2022-08-22T07:21:08.422Z,41.49
2022-08-22T07:25:21.346Z,40.67
2022-08-22T07:29:49.606Z,42.32
2022-08-22T07:34:07.159Z,41.73
2022-08-22T07:38:35.641Z,41.60
2022-08-22T07:42:54.727Z,42.23
2022-08-22T07:47:16.385Z,42.75
2022-08-22T07:51:53.147Z,42.86
2022-08-22T07:56:07.371Z,42.42
2022-08-22T08:00:21.299Z,42.17
2022-08-22T08:04:40.189Z,42.05
2022-08-22T08:08:53.434Z,42.66
2022-08-22T08:13:11.530Z,41.92
2022-08-22T08:17:31.506Z,42.65
2022-08-22T08:21:53.522Z,42.06
2022-08-22T08:26:23.123Z,41.97
2022-08-22T08:30:36.790Z,41.48
2022-08-22T08:34:48.469Z,41.44
2022-08-22T08:39:19.152Z,41.77
2022-08-22T08:43:43.389Z,41.28
2022-08-22T08:48:03.809Z,40.92
2022-08-22T08:52:38.703Z,39.57
2022-08-22T08:57:09.071Z,39.27
2022-08-22T09:01:44.737Z,38.63
2022-08-22T09:06:25.235Z,38.19
2022-08-22T09:11:09.987Z,36.71
2022-08-22T09:15:31.768Z,36.20
2022-08-22T09:20:17.808Z,37.64
2022-08-22T09:24:56.015Z,34.78
2022-08-22T09:29:22.989Z,35.08
2022-08-22T09:33:44.303Z,35.39
2022-08-22T09:38:11.203Z,36.09
2022-08-22T09:42:29.630Z,36.43
2022-08-22T09:46:49.931Z,36.09
2022-08-22T09:51:31.550Z,34.35
2022-08-22T09:55:55.913Z,34.46
2022-08-22T10:00:23.258Z,35.32
2022-08-22T10:04:56.260Z,32.82
2022-08-22T10:09:31.433Z,34.21
2022-08-22T10:13:57.248Z,34.61
2022-08-22T10:18:35.563Z,32.68
2022-08-22T10:23:11.925Z,32.15
2022-08-22T10:27:49.546Z,32.76
2022-08-22T10:32:26.977Z,32.28
2022-08-22T10:36:45.074Z,31.25
2022-08-22T10:41:09.428Z,31.22
2022-08-22T10:45:36.253Z,30.05
2022-08-22T10:49:56.672Z,30.43
2022-08-22T10:54:32.708Z,29.98
2022-08-22T10:58:56.040Z,30.02
2022-08-22T11:03:25.799Z,29.78
2022-08-22T11:08:14.820Z,28.98
2022-08-22T11:12:36.094Z,30.54
2022-08-22T11:16:59.670Z,30.07
2022-08-22T11:21:33.447Z,29.59
2022-08-22T11:26:05.176Z,29.93
2022-08-22T11:30:29.225Z,29.39
2022-08-22T11:35:13.834Z,29.59
2022-08-22T11:39:45.287Z,29.46
2022-08-22T11:44:50.198Z,29.75
2022-08-22T11:49:20.999Z,29.73
2022-08-22T11:53:45.221Z,28.82
2022-08-22T11:58:20.854Z,28.35
2022-08-22T12:02:45.509Z,28.27
2022-08-22T12:07:20.187Z,27.08
2022-08-22T12:11:59.774Z,28.03
2022-08-22T12:16:30.010Z,29.12
2022-08-22T12:21:01.830Z,29.83
2022-08-22T12:25:30.956Z,28.26
2022-08-22T12:30:05.262Z,28.24
2022-08-22T12:34:34.994Z,28.60
2022-08-22T12:39:07.753Z,28.69
2022-08-22T12:43:42.665Z,27.95
2022-08-22T12:48:16.347Z,27.33
2022-08-22T12:52:49.617Z,27.08
2022-08-22T12:57:35.097Z,27.26
2022-08-22T13:01:50.410Z,27.04
2022-08-22T13:06:07.827Z,26.57
2022-08-22T13:10:31.376Z,26.89
2022-08-22T13:14:46.082Z,26.21
2022-08-22T13:19:07.665Z,26.39
2022-08-22T13:23:26.602Z,27.22
2022-08-22T13:27:51.793Z,26.90
2022-08-22T13:32:04.422Z,26.91
2022-08-22T13:36:21.433Z,27.78
2022-08-22T13:40:35.656Z,27.99
2022-08-22T13:44:53.862Z,28.76
2022-08-22T13:49:09.896Z,28.41
2022-08-22T13:53:50.071Z,28.38
2022-08-22T13:58:34.362Z,26.97
2022-08-22T14:03:05.669Z,27.23
2022-08-22T14:07:32.657Z,26.53
2022-08-22T14:11:50.353Z,26.43
2022-08-22T14:16:06.541Z,27.48
2022-08-22T14:20:33.492Z,27.75
2022-08-22T14:24:55.877Z,27.72
2022-08-22T14:29:14.173Z,28.15
2022-08-22T14:33:35.006Z,28.14
2022-08-22T14:37:51.886Z,27.91
2022-08-22T14:42:12.029Z,27.16
2022-08-22T14:46:53.029Z,26.74
2022-08-22T14:51:10.426Z,26.98
2022-08-22T14:55:26.950Z,27.45
2022-08-22T14:59:52.197Z,27.68
2022-08-22T15:04:16.516Z,27.20
2022-08-22T15:08:34.959Z,27.00
2022-08-22T15:12:51.348Z,26.81
2022-08-22T15:17:06.410Z,26.50
2022-08-22T15:21:24.522Z,26.04
2022-08-22T15:25:41.133Z,26.34
2022-08-22T15:29:57.057Z,26.41
2022-08-22T15:34:43.620Z,26.48
2022-08-22T15:39:16.610Z,26.16
2022-08-22T15:43:35.872Z,26.43
2022-08-22T15:47:52.523Z,26.17
2022-08-22T15:52:08.432Z,27.21
2022-08-22T15:56:27.246Z,27.41
2022-08-22T16:01:02.693Z,27.19
2022-08-22T16:05:14.752Z,26.69
2022-08-22T16:09:50.109Z,26.63
2022-08-22T16:14:22.226Z,26.54
2022-08-22T16:18:33.844Z,26.73
2022-08-22T16:23:08.937Z,26.84
2022-08-22T16:27:25.921Z,26.90
2022-08-22T16:31:56.250Z,27.31
2022-08-22T16:36:20.606Z,27.23
2022-08-22T16:40:47.182Z,27.65
2022-08-22T16:45:05.214Z,27.25
2022-08-22T16:49:39.027Z,27.36
2022-08-22T16:54:10.345Z,27.61
2022-08-22T16:58:50.152Z,27.94
2022-08-22T17:03:18.119Z,28.41
2022-08-22T17:07:44.902Z,28.68
2022-08-22T17:12:02.016Z,29.19
2022-08-22T17:16:41.263Z,29.29
2022-08-22T17:21:17.593Z,29.30
2022-08-22T17:25:36.091Z,29.47
2022-08-22T17:30:07.068Z,29.69
2022-08-22T17:34:40.018Z,29.99
2022-08-22T17:39:35.276Z,30.51
2022-08-22T17:43:55.631Z,30.66
2022-08-22T17:48:12.871Z,31.05
2022-08-22T17:52:36.464Z,31.47
2022-08-22T17:57:00.437Z,31.12
2022-08-22T18:01:43.866Z,31.58
2022-08-22T18:06:05.867Z,32.19
2022-08-22T18:10:17.389Z,32.78
2022-08-22T18:14:52.619Z,33.85
2022-08-22T18:19:12.358Z,36.10
2022-08-22T18:23:39.741Z,37.88
2022-08-22T18:28:06.365Z,38.92
2022-08-22T18:32:36.050Z,39.75
2022-08-22T18:37:01.660Z,40.07
2022-08-22T18:41:38.286Z,40.42
2022-08-22T18:45:50.391Z,40.89
2022-08-22T18:50:32.591Z,40.71
2022-08-22T18:55:10.045Z,41.45
2022-08-22T19:00:09.021Z,42.31
2022-08-22T19:05:17.964Z,41.83
2022-08-22T19:09:58.167Z,42.92
2022-08-22T19:14:24.061Z,42.70
2022-08-22T19:18:54.142Z,43.26
2022-08-22T19:23:33.601Z,43.30
2022-08-22T19:28:05.847Z,43.73
2022-08-22T19:32:45.165Z,44.97
2022-08-22T19:37:33.314Z,45.35
2022-08-22T19:41:53.062Z,45.52
2022-08-22T19:46:14.805Z,44.85
2022-08-22T19:50:31.824Z,45.30
2022-08-22T19:55:09.328Z,45.83
2022-08-22T19:59:39.706Z,45.73
2022-08-22T20:04:08.496Z,46.12
2022-08-22T20:08:35.666Z,46.91
2022-08-22T20:13:05.474Z,47.12
2022-08-22T20:17:25.422Z,47.24
2022-08-22T20:21:39.137Z,47.38
2022-08-22T20:25:52.952Z,47.56
2022-08-22T20:30:17.897Z,47.74
2022-08-22T20:34:36.427Z,47.84
2022-08-22T20:38:55.426Z,47.63
2022-08-22T20:43:40.571Z,48.54
2022-08-22T20:47:52.404Z,48.76
2022-08-22T20:52:26.175Z,48.80
2022-08-22T20:56:52.994Z,48.71
2022-08-22T21:01:06.961Z,49.16
2022-08-22T21:05:22.451Z,49.44
2022-08-22T21:10:06.414Z,49.85
2022-08-22T21:14:26.241Z,49.17
2022-08-22T21:18:41.665Z,49.75
2022-08-22T21:22:53.227Z,49.35
2022-08-22T21:27:06.669Z,49.58
